Time;durP1;ratioP1;P1;durP2;ratioP2;P2;SDS_P1;SDS_P2;PMS_P1;PMS_P2;Temp;Humidity;BMP_temperature;BMP_pressure;BME280_temperature;BME280_humidity;BME280_pressure;Samples;Min_cycle;Max_cycle;Signal;HPM_P1;HPM_P2
2021/05/10 04:00:40;;;;;;;6.73;4.50;;;16.20;99.90;;;;;;5817737;23;20459;-66
2021/05/10 04:03:08;;;;;;;8.73;4.37;;;16.30;99.90;;;;;;4974921;28;20482;-66
2021/05/10 04:05:57;;;;;;;6.40;5.00;;;16.30;99.90;;;;;;4975098;28;20458;-67
2021/05/10 04:08:44;;;;;;;5.47;4.63;;;16.30;99.90;;;;;;4975092;28;20534;-66
2021/05/10 04:11:12;;;;;;;7.87;5.03;;;16.30;99.90;;;;;;4975096;28;20483;-66
2021/05/10 04:13:41;;;;;;;5.23;4.70;;;16.30;99.90;;;;;;4975170;28;20450;-66
2021/05/10 04:16:08;;;;;;;6.50;4.50;;;16.20;99.90;;;;;;4975024;28;20459;-66
2021/05/10 04:18:35;;;;;;;4.20;3.87;;;16.30;99.90;;;;;;4975108;28;20451;-67
2021/05/10 04:21:02;;;;;;;5.53;4.60;;;16.40;99.90;;;;;;4974902;28;20483;-67
2021/05/10 04:23:28;;;;;;;4.13;3.43;;;16.40;99.90;;;;;;4975458;28;20478;-66
2021/05/10 04:25:55;;;;;;;7.33;3.73;;;16.50;99.90;;;;;;4975325;28;20481;-67
2021/05/10 04:28:23;;;;;;;3.97;3.63;;;16.50;99.90;;;;;;4974809;28;20462;-66
2021/05/10 04:30:50;;;;;;;5.60;3.27;;;16.60;99.90;;;;;;4974815;28;20973;-67
2021/05/10 04:33:25;;;;;;;3.73;3.03;;;16.70;99.90;;;;;;4975090;28;20518;-66
2021/05/10 04:35:51;;;;;;;3.83;3.07;;;16.80;99.90;;;;;;4975012;28;20450;-67
2021/05/10 04:38:18;;;;;;;3.17;2.43;;;16.90;99.90;;;;;;4977542;28;20500;-66
2021/05/10 04:40:44;;;;;;;3.13;2.93;;;17.00;99.90;;;;;;4979143;28;20478;-68
2021/05/10 04:43:11;;;;;;;3.83;3.03;;;17.10;99.90;;;;;;4979089;28;20482;-66
2021/05/10 04:45:37;;;;;;;2.93;2.73;;;17.20;99.90;;;;;;4978243;28;20937;-66
2021/05/10 04:48:04;;;;;;;3.40;3.10;;;17.30;99.90;;;;;;4978556;28;20454;-66
2021/05/10 04:50:31;;;;;;;3.47;3.17;;;17.40;99.90;;;;;;4978442;28;20478;-67
2021/05/10 04:52:58;;;;;;;3.07;2.77;;;17.50;99.90;;;;;;4978460;28;20447;-66
2021/05/10 04:55:24;;;;;;;6.73;3.37;;;17.60;99.90;;;;;;4978083;28;20941;-67
2021/05/10 04:57:50;;;;;;;4.00;3.13;;;17.70;99.90;;;;;;4978792;28;20458;-66
2021/05/10 05:00:17;;;;;;;3.77;3.47;;;17.80;99.90;;;;;;4978338;28;20454;-66
2021/05/10 05:02:45;;;;;;;3.70;3.20;;;18.00;99.90;;;;;;4978007;28;20489;-66
2021/05/10 05:05:12;;;;;;;4.50;3.30;;;18.20;99.90;;;;;;4978453;28;20981;-67
2021/05/10 05:07:40;;;;;;;4.53;3.50;;;18.30;99.90;;;;;;4978014;28;20825;-67
2021/05/10 05:10:07;;;;;;;7.80;2.97;;;18.30;99.90;;;;;;4978119;28;20508;-68
2021/05/10 05:12:33;;;;;;;3.40;3.10;;;18.40;99.90;;;;;;4977825;28;20811;-65
2021/05/10 05:15:00;;;;;;;3.73;2.83;;;18.60;99.90;;;;;;4978618;28;20455;-65
2021/05/10 05:17:26;;;;;;;3.50;2.93;;;18.70;99.90;;;;;;4978124;28;20466;-65
2021/05/10 05:19:52;;;;;;;3.70;3.40;;;18.80;99.90;;;;;;4977808;28;20945;-65
2021/05/10 05:22:18;;;;;;;3.40;3.00;;;19.00;99.90;;;;;;4977557;28;20474;-66
2021/05/10 05:24:45;;;;;;;6.40;3.10;;;19.00;99.90;;;;;;4977906;28;20454;-67
2021/05/10 05:27:12;;;;;;;3.07;2.87;;;19.10;99.90;;;;;;4977955;28;20804;-67
2021/05/10 05:29:38;;;;;;;4.73;3.20;;;19.10;99.90;;;;;;4978101;28;20458;-67
2021/05/10 05:32:05;;;;;;;4.43;3.30;;;19.10;99.90;;;;;;4977866;28;20830;-68
2021/05/10 05:34:31;;;;;;;6.60;3.43;;;19.00;99.90;;;;;;4978477;28;20455;-67
2021/05/10 05:36:57;;;;;;;4.30;3.50;;;19.00;99.90;;;;;;4978938;28;20814;-66
2021/05/10 05:39:23;;;;;;;8.53;4.40;;;19.00;99.90;;;;;;4978156;28;20458;-67
2021/05/10 05:41:50;;;;;;;5.77;3.10;;;19.00;99.90;;;;;;4979063;28;20486;-68
2021/05/10 05:44:17;;;;;;;4.00;3.27;;;18.90;99.90;;;;;;4978469;28;20458;-67
2021/05/10 05:46:47;;;;;;;7.20;3.23;;;19.00;99.90;;;;;;4978011;28;20454;-68
2021/05/10 05:49:13;;;;;;;5.50;3.40;;;18.90;99.90;;;;;;4977357;28;20443;-68
2021/05/10 05:51:39;;;;;;;2.90;2.53;;;18.90;99.90;;;;;;4977773;28;20478;-66
2021/05/10 05:54:07;;;;;;;4.97;2.60;;;18.90;99.90;;;;;;4976701;28;20467;-66
2021/05/10 05:56:33;;;;;;;3.50;2.73;;;18.90;99.90;;;;;;4976580;28;20872;-66
2021/05/10 05:59:00;;;;;;;3.30;2.60;;;19.00;99.90;;;;;;4976944;28;20454;-67
2021/05/10 06:01:27;;;;;;;4.40;2.93;;;19.20;99.90;;;;;;4976573;28;20482;-65
2021/05/10 06:03:53;;;;;;;4.07;2.30;;;19.20;99.90;;;;;;4976786;28;20483;-66
2021/05/10 06:06:20;;;;;;;2.93;2.63;;;19.20;99.90;;;;;;4976610;28;20457;-66
2021/05/10 06:08:46;;;;;;;6.07;3.20;;;19.20;99.90;;;;;;4976603;28;20458;-66
2021/05/10 06:11:12;;;;;;;2.57;2.40;;;19.40;99.90;;;;;;4976416;28;20479;-66
2021/05/10 06:13:38;;;;;;;2.00;1.90;;;19.50;99.90;;;;;;4976788;28;20870;-66
2021/05/10 06:16:06;;;;;;;2.40;2.20;;;19.60;99.90;;;;;;4976899;28;20462;-67
2021/05/10 06:18:32;;;;;;;7.63;2.93;;;19.70;99.90;;;;;;4976833;28;20455;-68
2021/05/10 06:21:00;;;;;;;5.90;3.03;;;19.70;99.90;;;;;;4976409;28;20482;-67
2021/05/10 06:23:26;;;;;;;5.53;3.00;;;19.70;99.90;;;;;;4976319;28;20479;-67
2021/05/10 06:25:53;;;;;;;5.07;2.83;;;19.80;99.60;;;;;;4976426;28;20458;-67
2021/05/10 06:28:19;;;;;;;12.03;2.53;;;19.70;98.00;;;;;;4976272;28;20454;-66
2021/05/10 06:30:45;;;;;;;2.97;2.70;;;19.80;99.10;;;;;;4975802;28;21012;-67
2021/05/10 06:33:12;;;;;;;2.83;2.40;;;19.90;99.70;;;;;;4976074;28;20552;-67
2021/05/10 06:35:38;;;;;;;4.53;2.57;;;20.00;99.90;;;;;;4976080;28;20454;-67
2021/05/10 06:38:05;;;;;;;3.53;3.23;;;20.10;99.50;;;;;;4975898;28;20528;-66
2021/05/10 06:40:31;;;;;;;3.00;2.43;;;20.30;99.30;;;;;;4975782;28;20485;-68
2021/05/10 06:42:57;;;;;;;2.70;2.43;;;20.50;98.40;;;;;;4975794;28;20486;-67
2021/05/10 06:45:24;;;;;;;3.50;2.70;;;20.70;97.70;;;;;;4975920;28;20455;-67
2021/05/10 06:47:51;;;;;;;4.60;2.30;;;21.00;96.50;;;;;;4975708;28;20458;-67
2021/05/10 06:50:18;;;;;;;3.10;2.70;;;21.30;96.90;;;;;;4975571;28;20458;-66
2021/05/10 06:52:44;;;;;;;3.73;2.60;;;21.50;94.90;;;;;;4975691;28;20457;-67
2021/05/10 06:55:11;;;;;;;3.10;2.80;;;21.90;95.40;;;;;;4975753;28;20806;-67
2021/05/10 06:57:37;;;;;;;4.70;2.10;;;22.10;94.10;;;;;;4975598;28;20459;-67
2021/05/10 07:00:05;;;;;;;3.33;2.20;;;22.20;94.40;;;;;;4975352;28;20518;-67
2021/05/10 07:02:31;;;;;;;4.40;2.97;;;22.30;95.30;;;;;;4974432;28;20486;-67
2021/05/10 07:04:57;;;;;;;3.10;2.83;;;22.50;92.10;;;;;;4975164;28;20550;-67
2021/05/10 07:07:24;;;;;;;2.97;1.83;;;22.60;93.00;;;;;;4975391;28;20473;-67
2021/05/10 07:09:51;;;;;;;2.60;2.40;;;22.60;92.20;;;;;;4975358;28;20458;-67
2021/05/10 07:12:17;;;;;;;2.70;1.80;;;22.50;92.60;;;;;;4975410;28;20470;-67
2021/05/10 07:14:43;;;;;;;2.60;2.40;;;22.70;93.00;;;;;;4975321;28;20466;-67
2021/05/10 07:17:09;;;;;;;3.33;2.50;;;22.90;92.60;;;;;;4975427;28;20459;-67
2021/05/10 07:19:36;;;;;;;4.07;2.40;;;22.90;93.50;;;;;;4975245;28;20458;-67
2021/05/10 07:22:02;;;;;;;3.83;2.10;;;23.10;94.20;;;;;;4975104;28;20486;-67
2021/05/10 07:24:29;;;;;;;3.27;2.60;;;23.30;92.70;;;;;;4975027;28;20533;-67
2021/05/10 07:26:56;;;;;;;4.07;2.80;;;23.70;92.80;;;;;;4974866;28;20816;-66
2021/05/10 07:29:22;;;;;;;3.43;2.17;;;24.20;92.50;;;;;;4974869;28;20517;-66
2021/05/10 07:31:49;;;;;;;4.30;2.30;;;24.60;90.60;;;;;;4975007;28;20502;-66
2021/05/10 07:34:15;;;;;;;2.73;2.40;;;25.30;91.60;;;;;;4975138;28;20517;-66
2021/05/10 07:36:41;;;;;;;2.50;2.30;;;25.80;89.00;;;;;;4974793;28;20486;-66
2021/05/10 07:39:08;;;;;;;4.30;2.60;;;26.00;85.50;;;;;;4974946;28;20579;-66
2021/05/10 07:41:35;;;;;;;2.40;2.20;;;25.70;82.00;;;;;;4974929;28;20479;-66
2021/05/10 07:44:02;;;;;;;6.60;2.47;;;25.70;84.70;;;;;;4974937;28;20486;-66
2021/05/10 07:46:28;;;;;;;2.63;2.40;;;25.40;86.00;;;;;;4975272;28;20455;-66
2021/05/10 07:48:54;;;;;;;2.30;2.10;;;25.30;84.80;;;;;;4974721;28;20967;-67
2021/05/10 07:51:21;;;;;;;4.47;2.30;;;25.60;87.10;;;;;;4975411;28;20479;-66
2021/05/10 07:53:47;;;;;;;3.70;2.23;;;25.90;85.30;;;;;;4975162;28;20465;-66
2021/05/10 07:56:13;;;;;;;2.73;2.00;;;26.30;84.00;;;;;;4974891;28;20482;-66
2021/05/10 07:58:43;;;;;;;1.87;1.77;;;26.50;83.10;;;;;;4974927;28;20493;-65
2021/05/10 08:01:09;;;;;;;3.30;2.30;;;26.50;84.60;;;;;;4974591;28;20565;-66
2021/05/10 08:03:36;;;;;;;3.23;1.80;;;27.30;82.30;;;;;;4974715;28;20839;-65
2021/05/10 08:06:02;;;;;;;4.27;2.30;;;27.70;80.80;;;;;;4974506;28;20462;-66
2021/05/10 08:08:29;;;;;;;3.73;2.67;;;28.20;79.50;;;;;;4975059;28;20450;-65
2021/05/10 08:10:55;;;;;;;5.10;2.57;;;28.00;76.10;;;;;;4974585;28;20478;-65
2021/05/10 08:13:22;;;;;;;2.90;2.10;;;28.30;76.10;;;;;;4978278;28;20454;-65
2021/05/10 08:15:49;;;;;;;2.93;2.30;;;28.20;76.50;;;;;;4978624;28;20461;-65
2021/05/10 08:18:15;;;;;;;2.60;1.97;;;28.10;75.60;;;;;;4978620;28;20454;-65
2021/05/10 08:20:43;;;;;;;10.80;2.50;;;28.30;76.90;;;;;;4978774;28;20830;-66
2021/05/10 08:23:10;;;;;;;2.07;1.87;;;28.80;74.60;;;;;;4978472;28;21013;-66
2021/05/10 08:25:37;;;;;;;7.13;2.20;;;29.50;73.80;;;;;;4978198;28;20820;-65
2021/05/10 08:28:03;;;;;;;4.40;1.80;;;30.20;71.60;;;;;;4978040;28;20795;-66
2021/05/10 08:30:29;;;;;;;7.27;2.13;;;30.60;66.90;;;;;;4978505;28;20458;-65
2021/05/10 08:32:57;;;;;;;2.83;1.80;;;29.70;66.50;;;;;;4978237;28;20573;-65
2021/05/10 08:35:24;;;;;;;2.40;2.10;;;29.30;67.00;;;;;;4978034;28;20831;-66
2021/05/10 08:37:50;;;;;;;4.17;2.20;;;28.90;68.70;;;;;;4978083;28;20464;-66
2021/05/10 08:40:16;;;;;;;2.73;2.00;;;28.50;70.20;;;;;;4977823;28;20575;-67
2021/05/10 08:42:44;;;;;;;2.43;2.33;;;27.90;71.60;;;;;;4978415;28;20474;-66
2021/05/10 08:45:11;;;;;;;3.37;1.90;;;27.20;71.90;;;;;;4978455;28;20458;-66
2021/05/10 08:47:38;;;;;;;12.17;2.43;;;26.60;75.00;;;;;;4977995;28;20454;-66
2021/05/10 08:50:09;;;;;;;3.30;2.20;;;26.00;76.50;;;;;;4978031;28;20465;-66
2021/05/10 08:52:35;;;;;;;5.43;2.20;;;25.40;79.40;;;;;;4977905;28;20550;-66
2021/05/10 08:55:02;;;;;;;2.60;2.40;;;24.90;80.90;;;;;;4978142;28;20454;-67
2021/05/10 08:57:28;;;;;;;3.33;3.00;;;24.60;82.50;;;;;;4977840;28;20464;-67
2021/05/10 08:59:54;;;;;;;5.60;2.33;;;24.40;84.40;;;;;;4977573;28;20465;-66
2021/05/10 09:02:29;;;;;;;3.40;2.00;;;24.10;85.60;;;;;;4977456;28;20486;-67
2021/05/10 09:05:09;;;;;;;7.73;2.80;;;24.00;86.20;;;;;;4977835;28;20441;-66
2021/05/10 09:07:36;;;;;;;2.97;2.13;;;24.20;87.90;;;;;;4977748;28;20600;-66
2021/05/10 09:10:06;;;;;;;3.27;2.20;;;24.30;87.60;;;;;;4977788;28;20548;-67
2021/05/10 09:12:44;;;;;;;3.50;1.90;;;24.50;87.30;;;;;;4978595;28;20886;-66
2021/05/10 09:15:22;;;;;;;4.70;2.23;;;24.40;87.20;;;;;;4978426;28;20469;-67
2021/05/10 09:17:49;;;;;;;4.83;2.00;;;24.30;87.30;;;;;;4978761;28;20442;-66
2021/05/10 09:20:18;;;;;;;5.30;2.47;;;23.90;87.60;;;;;;4978183;28;20466;-66
2021/05/10 09:22:50;;;;;;;6.13;2.50;;;24.00;89.60;;;;;;4977935;28;20835;-66
2021/05/10 09:25:17;;;;;;;2.10;1.97;;;24.00;89.40;;;;;;4976741;28;20458;-67
2021/05/10 09:27:43;;;;;;;4.00;2.57;;;23.80;89.60;;;;;;4978021;28;20454;-67
2021/05/10 09:30:18;;;;;;;3.90;2.20;;;23.90;88.80;;;;;;4977829;28;20454;-66
2021/05/10 09:32:50;;;;;;;2.17;2.00;;;24.00;89.60;;;;;;4977894;28;20434;-67
2021/05/10 09:35:25;;;;;;;1.70;1.60;;;24.10;89.70;;;;;;4978065;28;20451;-66
2021/05/10 09:37:57;;;;;;;2.40;1.50;;;24.30;87.90;;;;;;4977614;28;20974;-67
2021/05/10 09:40:27;;;;;;;1.73;1.40;;;24.70;87.20;;;;;;4977069;28;20940;-66
2021/05/10 09:42:55;;;;;;;1.67;1.37;;;24.90;84.70;;;;;;4977473;28;20510;-67
2021/05/10 09:45:33;;;;;;;3.00;2.00;;;25.00;85.10;;;;;;4977544;28;20513;-67
2021/05/10 09:48:07;;;;;;;4.40;1.40;;;25.40;81.90;;;;;;4977422;28;20477;-67
2021/05/10 09:50:38;;;;;;;3.70;1.00;;;25.80;85.40;;;;;;4977367;28;20475;-67
2021/05/10 09:53:07;;;;;;;2.17;1.37;;;26.00;80.00;;;;;;4977328;28;20469;-67
2021/05/10 09:55:44;;;;;;;2.83;1.10;;;26.30;79.90;;;;;;4977731;28;20451;-67
2021/05/10 09:58:11;;;;;;;1.60;1.00;;;26.70;78.70;;;;;;4977238;28;20442;-66
2021/05/10 10:00:39;;;;;;;0.90;0.90;;;27.00;74.80;;;;;;4977390;28;20537;-66
2021/05/10 10:03:06;;;;;;;2.70;1.30;;;26.50;74.30;;;;;;4977444;28;20561;-67
2021/05/10 10:05:33;;;;;;;1.70;1.27;;;26.30;76.90;;;;;;4977936;28;20475;-67
2021/05/10 10:08:00;;;;;;;1.27;1.17;;;26.50;78.10;;;;;;4977518;28;20454;-66
2021/05/10 10:10:27;;;;;;;3.57;1.30;;;26.60;77.00;;;;;;4977283;28;20443;-66
2021/05/10 10:12:53;;;;;;;2.30;1.00;;;26.10;73.50;;;;;;4977065;28;20461;-66
2021/05/10 10:15:19;;;;;;;4.77;1.30;;;26.30;77.00;;;;;;4977368;28;20471;-66
2021/05/10 10:17:46;;;;;;;1.03;1.00;;;26.50;77.90;;;;;;4977298;28;20458;-66
2021/05/10 10:20:13;;;;;;;3.53;1.20;;;26.30;77.30;;;;;;4977158;28;20494;-67
2021/05/10 10:22:41;;;;;;;2.10;1.10;;;26.00;77.70;;;;;;4976514;28;21015;-67
2021/05/10 10:25:09;;;;;;;1.90;1.10;;;25.70;77.00;;;;;;4976867;28;20950;-65
2021/05/10 10:27:37;;;;;;;1.37;1.27;;;25.20;80.60;;;;;;4976971;28;20454;-66
2021/05/10 10:30:05;;;;;;;2.20;1.10;;;24.80;81.40;;;;;;4977097;28;20459;-66
2021/05/10 10:32:32;;;;;;;1.13;1.10;;;24.60;81.60;;;;;;4976656;28;20482;-68
2021/05/10 10:35:00;;;;;;;0.90;0.90;;;24.30;82.30;;;;;;4976419;28;20447;-66
2021/05/10 10:37:27;;;;;;;0.97;0.97;;;24.00;83.70;;;;;;4976509;28;20465;-67
2021/05/10 10:39:56;;;;;;;2.57;1.17;;;23.80;84.30;;;;;;4976457;28;20553;-65
2021/05/10 10:42:25;;;;;;;1.40;1.10;;;23.60;85.70;;;;;;4977302;28;20501;-67
2021/05/10 10:44:57;;;;;;;2.13;1.40;;;23.50;85.20;;;;;;4976345;28;20458;-67
2021/05/10 10:47:47;;;;;;;1.20;1.10;;;23.20;85.70;;;;;;4976489;28;20461;-66
2021/05/10 10:50:15;;;;;;;2.77;1.20;;;23.10;86.20;;;;;;4976875;28;20462;-66
2021/05/10 10:52:52;;;;;;;1.10;1.00;;;23.10;88.40;;;;;;4976555;28;20461;-67
2021/05/10 10:55:22;;;;;;;1.00;1.00;;;23.30;87.40;;;;;;4976442;28;20556;-66
2021/05/10 10:57:48;;;;;;;1.73;0.90;;;23.50;87.40;;;;;;4976453;28;20478;-67
2021/05/10 11:00:17;;;;;;;1.70;1.20;;;23.60;86.70;;;;;;4976724;28;20439;-65
2021/05/10 11:02:46;;;;;;;1.70;1.20;;;23.60;85.70;;;;;;4975988;28;20474;-66
2021/05/10 11:05:14;;;;;;;0.90;0.90;;;23.20;89.00;;;;;;4976145;28;20466;-66
2021/05/10 11:08:03;;;;;;;1.10;1.03;;;23.10;87.40;;;;;;4976456;28;20439;-65
2021/05/10 11:10:50;;;;;;;1.60;1.13;;;23.00;89.00;;;;;;4970784;28;20462;-66
2021/05/10 11:13:37;;;;;;;3.23;1.23;;;23.00;89.90;;;;;;4975989;28;20522;-66
2021/05/10 11:16:07;;;;;;;2.73;1.00;;;23.20;90.50;;;;;;4976159;28;20457;-66
2021/05/10 11:18:43;;;;;;;1.70;1.20;;;23.40;88.00;;;;;;4976755;28;20542;-67
2021/05/10 11:21:40;;;;;;;1.20;1.20;;;23.40;88.20;;;;;;4975707;28;20458;-66
2021/05/10 11:24:11;;;;;;;0.80;0.80;;;23.00;84.80;;;;;;4975415;28;20478;-65
2021/05/10 11:26:41;;;;;;;2.93;1.00;;;23.00;86.80;;;;;;4975731;28;20960;-66
2021/05/10 11:29:08;;;;;;;0.70;0.70;;;22.70;86.30;;;;;;4976076;28;20458;-67
2021/05/10 11:31:37;;;;;;;1.77;1.37;;;22.60;86.20;;;;;;4975959;28;20475;-67
2021/05/10 11:34:15;;;;;;;1.27;0.93;;;22.40;87.90;;;;;;4976106;28;20461;-67
2021/05/10 11:36:52;;;;;;;2.97;1.10;;;22.20;87.00;;;;;;4975744;28;20455;-65
2021/05/10 11:39:23;;;;;;;0.80;0.80;;;22.20;88.30;;;;;;4975735;28;20457;-67
2021/05/10 11:41:49;;;;;;;2.00;1.00;;;22.10;89.00;;;;;;4975794;28;20482;-66
2021/05/10 11:44:24;;;;;;;2.00;0.70;;;22.10;89.10;;;;;;4975439;28;20494;-67
2021/05/10 11:46:52;;;;;;;3.13;0.90;;;22.10;89.40;;;;;;4975736;28;20457;-66
2021/05/10 11:49:29;;;;;;;1.07;1.07;;;22.00;90.00;;;;;;4975775;28;20481;-66
2021/05/10 11:51:58;;;;;;;0.73;0.73;;;21.70;89.40;;;;;;4975605;28;20582;-67
2021/05/10 11:54:26;;;;;;;0.50;0.50;;;21.80;90.30;;;;;;4975324;28;20937;-67
2021/05/10 11:56:54;;;;;;;1.37;0.70;;;21.60;90.00;;;;;;4975941;28;20873;-64
2021/05/10 12:02:17;;;;;;;1.90;0.70;;;21.70;90.30;;;;;;4975948;28;20478;-66
2021/05/10 12:04:45;;;;;;;0.73;0.70;;;21.70;90.20;;;;;;4979336;28;20517;-64
2021/05/10 12:07:12;;;;;;;2.10;0.60;;;21.70;90.10;;;;;;4979981;28;20454;-65
2021/05/10 12:09:45;;;;;;;2.00;0.73;;;21.60;90.10;;;;;;4981446;28;20874;-65
2021/05/10 12:12:28;;;;;;;1.17;0.50;;;21.40;89.20;;;;;;4977648;28;20485;-66
2021/05/10 12:14:56;;;;;;;1.17;0.80;;;21.20;90.50;;;;;;4976264;28;20445;-64
2021/05/10 12:17:24;;;;;;;0.60;0.60;;;21.10;90.30;;;;;;4975123;28;20512;-63
2021/05/10 12:20:10;;;;;;;0.73;0.60;;;21.10;90.50;;;;;;4975298;28;20913;-63
2021/05/10 12:22:39;;;;;;;0.80;0.63;;;21.00;89.10;;;;;;4975019;28;20483;-63
2021/05/10 12:25:11;;;;;;;1.53;0.60;;;21.00;88.90;;;;;;4975180;28;20454;-65
2021/05/10 12:27:43;;;;;;;1.80;0.80;;;20.90;88.90;;;;;;4975057;28;20467;-64
2021/05/10 12:30:17;;;;;;;1.10;0.77;;;21.00;89.00;;;;;;4974886;28;20443;-63
2021/05/10 12:32:49;;;;;;;0.40;0.40;;;21.00;90.00;;;;;;4974853;28;20474;-63
2021/05/10 12:35:18;;;;;;;0.40;0.40;;;21.10;89.40;;;;;;4974637;28;20913;-64
2021/05/10 12:37:50;;;;;;;1.57;1.00;;;21.10;89.00;;;;;;4974951;28;20532;-66
2021/05/10 12:40:21;;;;;;;0.50;0.50;;;21.10;90.00;;;;;;4976158;28;20435;-64
2021/05/10 12:43:24;;;;;;;1.07;0.50;;;21.20;90.00;;;;;;4978671;28;20941;-64
2021/05/10 12:46:00;;;;;;;2.00;0.63;;;21.20;88.30;;;;;;4975299;28;20460;-65
2021/05/10 12:48:29;;;;;;;0.40;0.40;;;21.00;89.10;;;;;;4975677;28;20442;-64
2021/05/10 12:50:57;;;;;;;0.40;0.40;;;21.10;90.00;;;;;;4975217;28;20510;-65
2021/05/10 12:53:32;;;;;;;1.17;0.60;;;21.00;87.60;;;;;;4974204;28;20545;-65
2021/05/10 12:56:00;;;;;;;0.83;0.60;;;21.10;90.20;;;;;;4974572;28;20454;-65
2021/05/10 12:58:26;;;;;;;0.40;0.40;;;21.20;88.80;;;;;;4975558;28;20561;-64
2021/05/10 13:00:54;;;;;;;1.80;0.57;;;21.40;90.00;;;;;;4977597;28;20483;-65
2021/05/10 13:03:32;;;;;;;1.53;0.60;;;21.40;88.80;;;;;;4977811;28;20483;-65
2021/05/10 13:06:00;;;;;;;1.60;0.50;;;21.60;90.00;;;;;;4977965;28;20496;-64
2021/05/10 13:08:43;;;;;;;0.60;0.60;;;21.70;87.20;;;;;;4977869;28;20458;-65
2021/05/10 13:11:11;;;;;;;0.50;0.50;;;21.70;87.60;;;;;;4977894;28;20474;-65
2021/05/10 13:13:39;;;;;;;0.50;0.50;;;21.50;87.00;;;;;;4977893;28;20455;-64
2021/05/10 13:16:25;;;;;;;0.73;0.60;;;21.50;86.90;;;;;;4977966;28;20454;-64
2021/05/10 13:18:58;;;;;;;1.63;0.50;;;21.30;86.80;;;;;;4977605;28;21006;-65
2021/05/10 13:27:38;;;;;;;0.43;0.43;;;21.20;88.90;;;;;;4977529;28;20437;-65
2021/05/10 13:32:51;;;;;;;0.40;0.40;;;21.00;89.80;;;;;;4977699;28;20430;-65
2021/05/10 13:35:36;;;;;;;0.60;0.60;;;20.80;90.10;;;;;;4977486;28;20482;-64
2021/05/10 13:38:03;;;;;;;0.60;0.60;;;20.60;91.20;;;;;;4977351;28;20454;-64
2021/05/10 13:40:30;;;;;;;2.40;0.77;;;20.70;91.70;;;;;;4977628;28;20435;-64
2021/05/10 13:43:00;;;;;;;0.60;0.60;;;20.80;91.20;;;;;;4977797;28;20474;-64
2021/05/10 13:45:27;;;;;;;0.60;0.60;;;20.70;91.40;;;;;;4977861;28;20443;-63
2021/05/10 13:47:53;;;;;;;0.80;0.80;;;20.90;91.90;;;;;;4977322;28;20549;-63
2021/05/10 13:50:19;;;;;;;1.17;0.67;;;20.80;91.70;;;;;;4977257;28;20490;-64
2021/05/10 13:52:46;;;;;;;0.53;0.53;;;20.90;93.20;;;;;;4977300;28;20435;-64
2021/05/10 13:55:12;;;;;;;0.90;0.90;;;21.00;93.00;;;;;;4977104;28;20512;-63
2021/05/10 13:57:38;;;;;;;0.60;0.60;;;20.90;92.70;;;;;;4977091;28;20458;-64
2021/05/10 14:00:08;;;;;;;1.60;0.83;;;21.00;92.90;;;;;;4977101;28;20561;-63
2021/05/10 14:02:34;;;;;;;0.80;0.80;;;21.00;93.30;;;;;;4976708;28;20482;-63
2021/05/10 14:05:00;;;;;;;0.83;0.83;;;21.10;93.60;;;;;;4977141;28;20458;-63
2021/05/10 14:07:27;;;;;;;1.00;0.70;;;21.00;93.50;;;;;;4977042;28;20462;-64
2021/05/10 14:09:54;;;;;;;0.80;0.80;;;21.00;94.50;;;;;;4977249;28;20860;-63
2021/05/10 14:12:20;;;;;;;1.70;1.43;;;21.00;93.60;;;;;;4976382;28;20475;-64
2021/05/10 14:14:46;;;;;;;0.80;0.80;;;21.00;94.20;;;;;;4977045;28;20458;-65
2021/05/10 14:17:12;;;;;;;0.70;0.70;;;20.90;94.20;;;;;;4976761;28;20473;-64
2021/05/10 14:19:38;;;;;;;0.90;0.60;;;20.70;94.70;;;;;;4976691;28;20454;-63
2021/05/10 14:22:04;;;;;;;0.80;0.80;;;20.60;95.30;;;;;;4976509;28;20470;-65
2021/05/10 14:24:31;;;;;;;1.17;1.00;;;20.70;95.90;;;;;;4978625;28;20505;-64
2021/05/10 14:27:01;;;;;;;0.80;0.80;;;20.60;95.90;;;;;;4977370;28;20205;-64
2021/05/10 14:29:27;;;;;;;2.67;0.87;;;20.50;96.10;;;;;;4976508;28;20827;-64
2021/05/10 14:31:53;;;;;;;1.23;0.63;;;20.20;96.30;;;;;;4976393;28;20475;-65
2021/05/10 14:34:21;;;;;;;3.93;0.80;;;20.30;98.10;;;;;;4976398;28;20839;-64
2021/05/10 14:36:48;;;;;;;0.80;0.80;;;20.30;98.20;;;;;;4977218;28;20506;-65
2021/05/10 14:39:14;;;;;;;2.97;0.97;;;20.20;98.40;;;;;;4976250;28;20455;-64
2021/05/10 14:41:42;;;;;;;1.80;0.80;;;20.20;99.80;;;;;;4976245;28;20474;-64
2021/05/10 14:44:11;;;;;;;1.47;0.80;;;20.20;99.50;;;;;;4976707;28;20490;-64
2021/05/10 14:46:37;;;;;;;4.93;0.93;;;20.20;99.90;;;;;;4976193;28;20454;-64
2021/05/10 14:49:04;;;;;;;0.53;0.53;;;20.20;99.90;;;;;;4976013;28;20490;-64
2021/05/10 14:51:30;;;;;;;0.70;0.70;;;20.30;99.90;;;;;;4975982;28;21055;-64
2021/05/10 14:53:58;;;;;;;1.07;0.97;;;20.00;99.90;;;;;;4975706;28;20938;-65
2021/05/10 14:56:24;;;;;;;1.27;0.90;;;20.00;99.90;;;;;;4975922;28;20454;-65
2021/05/10 14:58:50;;;;;;;0.90;0.77;;;20.00;99.90;;;;;;4975771;28;20497;-65
2021/05/10 15:01:19;;;;;;;0.97;0.80;;;19.90;99.90;;;;;;4975768;28;20482;-65
2021/05/10 15:03:46;;;;;;;0.80;0.80;;;19.60;99.90;;;;;;4975954;28;20514;-65
2021/05/10 15:06:12;;;;;;;0.70;0.70;;;19.50;99.90;;;;;;4976205;28;20542;-65
2021/05/10 15:08:38;;;;;;;0.50;0.50;;;19.40;99.90;;;;;;4975689;28;20465;-65
2021/05/10 15:11:05;;;;;;;1.40;0.50;;;19.50;99.90;;;;;;4975569;28;20486;-65
2021/05/10 15:13:31;;;;;;;1.17;0.60;;;19.50;99.90;;;;;;4975726;28;20455;-63
2021/05/10 15:15:57;;;;;;;0.50;0.50;;;19.50;99.90;;;;;;4975736;28;20454;-65
2021/05/10 15:18:24;;;;;;;0.50;0.50;;;19.50;99.90;;;;;;4975620;28;20455;-64
2021/05/10 15:20:51;;;;;;;0.70;0.70;;;19.50;99.90;;;;;;4975575;28;20479;-65
2021/05/10 15:23:17;;;;;;;0.83;0.60;;;19.40;99.90;;;;;;4974600;28;20490;-63
2021/05/10 15:25:43;;;;;;;1.07;0.60;;;19.50;99.90;;;;;;4980628;28;20454;-63
2021/05/10 15:28:10;;;;;;;1.07;0.50;;;19.60;99.90;;;;;;4991445;28;20455;-63
2021/05/10 15:30:36;;;;;;;0.63;0.63;;;19.60;99.90;;;;;;4991296;28;20450;-64
2021/05/10 15:33:03;;;;;;;1.27;0.60;;;19.60;99.90;;;;;;4991707;28;20443;-63
2021/05/10 15:35:30;;;;;;;0.73;0.73;;;19.80;99.90;;;;;;4992892;28;20454;-63
2021/05/10 15:37:57;;;;;;;0.67;0.67;;;19.80;99.90;;;;;;4993248;28;20451;-63
2021/05/10 15:40:24;;;;;;;0.40;0.40;;;19.60;99.90;;;;;;4992682;28;21027;-63
2021/05/10 15:42:50;;;;;;;0.70;0.70;;;19.60;99.90;;;;;;4992695;28;20482;-63
2021/05/10 15:45:18;;;;;;;0.60;0.60;;;19.70;99.90;;;;;;4993064;28;20473;-63
2021/05/10 15:47:46;;;;;;;0.80;0.80;;;19.70;99.90;;;;;;4993121;28;20447;-63
2021/05/10 15:50:14;;;;;;;0.40;0.40;;;19.60;99.90;;;;;;4993321;28;20922;-65
2021/05/10 15:52:41;;;;;;;1.23;0.60;;;19.60;99.90;;;;;;4991918;28;20625;-65
2021/05/10 15:55:09;;;;;;;1.80;0.40;;;19.40;99.90;;;;;;4992394;28;20454;-63
2021/05/10 15:57:35;;;;;;;1.17;0.60;;;19.20;99.90;;;;;;4992797;28;20450;-65
2021/05/10 16:00:02;;;;;;;0.50;0.50;;;19.20;99.90;;;;;;4979397;28;20545;-65
2021/05/10 16:02:29;;;;;;;4.50;0.77;;;19.10;99.90;;;;;;4975770;28;20545;-65
2021/05/10 16:04:55;;;;;;;2.83;0.60;;;19.10;99.90;;;;;;4976118;28;20454;-65
2021/05/10 16:07:21;;;;;;;0.60;0.60;;;18.90;99.90;;;;;;4976183;28;20473;-65
2021/05/10 16:09:48;;;;;;;0.70;0.57;;;18.80;99.90;;;;;;4975251;28;20822;-65
2021/05/10 16:12:14;;;;;;;3.83;0.70;;;18.80;99.90;;;;;;4975441;28;20474;-65
2021/05/10 16:14:40;;;;;;;0.70;0.60;;;18.80;99.90;;;;;;4978537;28;20446;-65
2021/05/10 16:17:07;;;;;;;1.23;0.40;;;18.80;99.90;;;;;;4985708;28;20457;-65
2021/05/10 16:19:35;;;;;;;0.80;0.40;;;18.60;99.90;;;;;;4986682;28;20454;-65
2021/05/10 16:22:01;;;;;;;0.50;0.50;;;18.60;99.90;;;;;;4986011;28;20557;-65
2021/05/10 16:24:28;;;;;;;0.50;0.50;;;18.70;99.90;;;;;;4986871;28;20478;-65
2021/05/10 16:26:55;;;;;;;0.40;0.40;;;18.70;99.90;;;;;;4988186;28;20494;-65
2021/05/10 16:29:21;;;;;;;1.13;0.50;;;18.70;99.90;;;;;;4987000;28;20458;-65
2021/05/10 16:31:48;;;;;;;0.23;0.23;;;18.80;99.90;;;;;;4987193;28;20474;-65
2021/05/10 16:34:14;;;;;;;0.70;0.40;;;18.90;99.90;;;;;;4990522;28;20447;-64
2021/05/10 16:36:41;;;;;;;1.10;0.80;;;18.90;99.90;;;;;;4990526;28;20454;-64
2021/05/10 16:39:07;;;;;;;1.80;0.93;;;19.10;99.90;;;;;;4983885;28;20465;-64
2021/05/10 16:41:35;;;;;;;0.97;0.80;;;18.90;99.90;;;;;;4987353;28;20509;-64
2021/05/10 16:44:02;;;;;;;1.97;0.70;;;19.00;99.90;;;;;;4984480;28;20510;-64
2021/05/10 16:46:29;;;;;;;4.03;1.30;;;19.00;99.90;;;;;;4980578;28;20454;-64
2021/05/10 16:48:55;;;;;;;0.80;0.80;;;19.10;99.90;;;;;;4979049;28;20457;-64
2021/05/10 16:51:21;;;;;;;0.67;0.67;;;19.10;99.90;;;;;;4978544;28;20481;-64
2021/05/10 16:53:48;;;;;;;0.70;0.70;;;19.10;99.90;;;;;;4979732;28;20439;-64
2021/05/10 16:56:15;;;;;;;0.87;0.70;;;19.20;99.90;;;;;;4982283;28;20438;-64
2021/05/10 16:58:41;;;;;;;0.83;0.80;;;19.30;99.90;;;;;;4978543;28;20447;-65
2021/05/10 17:01:08;;;;;;;0.50;0.50;;;19.20;99.90;;;;;;4978780;28;20485;-64
2021/05/10 17:03:35;;;;;;;0.60;0.60;;;19.00;99.90;;;;;;4978501;28;20991;-65